Time;durP1;ratioP1;P1;durP2;ratioP2;P2;SDS_P1;SDS_P2;PMS_P1;PMS_P2;Temp;Humidity;BMP_temperature;BMP_pressure;BME280_temperature;BME280_humidity;BME280_pressure;Samples;Min_cycle;Max_cycle;Signal;HPM_P1;HPM_P2
2022/08/22 00:01:32;;;;;;;13.65;6.25;;;25.40;89.60;;;;;;5040227;28;20822;-82
2022/08/22 00:04:12;;;;;;;9.02;5.88;;;25.40;89.80;;;;;;5034911;28;20241;-80
2022/08/22 00:06:51;;;;;;;9.82;5.90;;;25.40;89.70;;;;;;5035182;28;20526;-82
2022/08/22 00:09:31;;;;;;;6.85;5.38;;;25.40;90.00;;;;;;5040362;28;20684;-81
2022/08/22 00:12:14;;;;;;;9.52;5.95;;;25.40;90.10;;;;;;5038151;28;20244;-81
2022/08/22 00:14:50;;;;;;;11.43;6.13;;;25.40;90.20;;;;;;5038242;28;20586;-83
2022/08/22 00:17:33;;;;;;;9.18;6.50;;;25.40;90.40;;;;;;5037844;28;20297;-82
2022/08/22 00:20:09;;;;;;;8.80;6.22;;;25.30;90.70;;;;;;5033612;28;20219;-82
2022/08/22 00:22:46;;;;;;;12.25;6.30;;;25.30;90.90;;;;;;5036333;28;20305;-80
2022/08/22 00:25:40;;;;;;;12.07;6.93;;;25.20;90.90;;;;;;5035380;28;20268;-82
2022/08/22 00:28:15;;;;;;;10.13;6.68;;;25.20;91.20;;;;;;5033691;28;20226;-81
2022/08/22 00:30:51;;;;;;;12.25;6.97;;;25.20;91.10;;;;;;5036760;28;20191;-82
2022/08/22 00:33:27;;;;;;;10.43;6.65;;;25.20;91.20;;;;;;5035792;28;20206;-83
2022/08/22 00:36:15;;;;;;;17.02;6.20;;;25.10;91.20;;;;;;5035716;28;20229;-82
2022/08/22 00:38:50;;;;;;;11.63;6.47;;;25.10;91.20;;;;;;5038734;28;20187;-82
2022/08/22 00:41:33;;;;;;;9.70;6.53;;;25.10;91.30;;;;;;5030501;28;20734;-84
2022/08/22 00:44:34;;;;;;;10.85;7.07;;;25.10;91.40;;;;;;5029315;28;20599;-84
2022/08/22 00:47:30;;;;;;;10.02;6.68;;;25.00;91.60;;;;;;5029015;28;20199;-80
2022/08/22 00:50:25;;;;;;;9.43;6.22;;;25.00;91.60;;;;;;5031040;28;20246;-83
2022/08/22 00:53:06;;;;;;;15.13;7.07;;;25.00;91.50;;;;;;5037552;28;20210;-81
2022/08/22 00:55:57;;;;;;;10.60;6.57;;;25.00;91.50;;;;;;5034996;28;20195;-81
2022/08/22 00:58:45;;;;;;;9.75;6.00;;;24.90;91.50;;;;;;5034738;28;20203;-81
2022/08/22 01:01:17;;;;;;;8.75;6.10;;;24.90;91.60;;;;;;5030013;28;20602;-82
2022/08/22 01:04:19;;;;;;;9.45;6.00;;;24.90;91.50;;;;;;5035208;28;20200;-81
2022/08/22 01:07:15;;;;;;;10.63;6.57;;;24.90;91.50;;;;;;5030634;28;20279;-79
2022/08/22 01:09:57;;;;;;;11.25;6.35;;;24.90;91.60;;;;;;5032515;28;20252;-82
2022/08/22 01:12:45;;;;;;;10.43;6.63;;;24.90;91.70;;;;;;5032815;28;20191;-81
2022/08/22 01:15:20;;;;;;;9.02;5.75;;;24.90;91.70;;;;;;5036107;28;20223;-80
2022/08/22 01:18:08;;;;;;;14.00;6.43;;;24.90;91.70;;;;;;5027884;28;20195;-83
2022/08/22 01:21:28;;;;;;;9.68;5.75;;;24.90;91.80;;;;;;5036963;28;20187;-83
2022/08/22 01:24:35;;;;;;;9.07;6.13;;;24.90;91.70;;;;;;4950953;28;20285;-82
2022/08/22 01:28:10;;;;;;;11.77;6.60;;;24.90;91.70;;;;;;5030940;28;20183;-82
2022/08/22 01:31:15;;;;;;;10.63;6.13;;;24.90;91.70;;;;;;4971146;28;20208;-81
2022/08/22 01:34:24;;;;;;;8.68;5.43;;;24.90;91.80;;;;;;4950960;28;20220;-82
2022/08/22 01:37:26;;;;;;;11.73;6.85;;;24.90;92.10;;;;;;5033691;28;20194;-82
2022/08/22 01:40:28;;;;;;;13.13;6.65;;;24.90;91.60;;;;;;5032225;28;20278;-81
2022/08/22 01:43:10;;;;;;;10.27;6.00;;;24.90;91.60;;;;;;5035641;28;20645;-81
2022/08/22 01:46:02;;;;;;;8.65;6.20;;;24.90;91.60;;;;;;5035294;28;20270;-80
2022/08/22 01:48:37;;;;;;;9.20;5.90;;;24.80;91.70;;;;;;5034135;28;20710;-80
2022/08/22 01:51:17;;;;;;;12.32;6.28;;;24.80;91.70;;;;;;5035729;28;20248;-82
2022/08/22 01:54:01;;;;;;;10.77;5.93;;;24.80;91.70;;;;;;5035930;28;20183;-81
2022/08/22 01:56:35;;;;;;;10.18;5.80;;;24.80;91.70;;;;;;5034001;28;20226;-82
2022/08/22 01:59:09;;;;;;;8.27;5.38;;;24.80;91.70;;;;;;5036872;28;20927;-81
2022/08/22 02:01:56;;;;;;;13.20;5.25;;;24.80;91.70;;;;;;5035338;28;20251;-82
2022/08/22 02:04:37;;;;;;;10.57;5.45;;;24.90;91.70;;;;;;5036282;28;20329;-80
2022/08/22 02:07:13;;;;;;;7.70;5.38;;;24.80;91.60;;;;;;5036943;28;20282;-81
2022/08/22 02:09:50;;;;;;;10.93;6.05;;;24.90;91.60;;;;;;5036858;28;20638;-84
2022/08/22 02:12:31;;;;;;;8.10;5.50;;;24.80;91.50;;;;;;5030426;28;20191;-81
2022/08/22 02:15:13;;;;;;;7.82;5.38;;;24.90;91.50;;;;;;5039693;28;20198;-82
2022/08/22 02:17:58;;;;;;;11.80;5.25;;;24.90;91.50;;;;;;5034384;28;20687;-82
2022/08/22 02:20:33;;;;;;;9.32;5.45;;;24.90;91.40;;;;;;5028593;28;20183;-83
2022/08/22 02:23:19;;;;;;;11.02;5.70;;;24.90;91.30;;;;;;5032781;28;20720;-83
2022/08/22 02:25:52;;;;;;;10.23;6.35;;;24.90;91.30;;;;;;5035432;28;20229;-82
2022/08/22 02:28:32;;;;;;;9.38;5.20;;;25.00;91.30;;;;;;5030795;28;20215;-82
2022/08/22 02:31:07;;;;;;;10.60;5.45;;;25.00;91.20;;;;;;5027121;28;20316;-84
2022/08/22 02:33:53;;;;;;;8.95;5.20;;;25.00;91.20;;;;;;5034675;28;20186;-81
2022/08/22 02:36:27;;;;;;;9.52;5.82;;;25.00;91.20;;;;;;5031770;28;20230;-82
2022/08/22 02:39:05;;;;;;;7.38;5.07;;;25.00;91.10;;;;;;5014075;28;20196;-87
2022/08/22 02:41:44;;;;;;;13.77;6.15;;;25.00;91.10;;;;;;5032919;28;20187;-81
2022/08/22 02:44:19;;;;;;;10.40;5.32;;;25.00;91.00;;;;;;5035812;28;20570;-82
2022/08/22 02:46:54;;;;;;;9.38;5.95;;;25.00;91.00;;;;;;5030164;28;20191;-82
2022/08/22 02:49:36;;;;;;;9.63;5.78;;;25.00;91.00;;;;;;5032652;28;20922;-81
2022/08/22 02:52:16;;;;;;;9.88;5.82;;;25.00;91.00;;;;;;5032431;28;20653;-80
2022/08/22 02:54:56;;;;;;;13.80;5.80;;;25.00;91.00;;;;;;5032886;28;20935;-81
2022/08/22 02:57:33;;;;;;;9.68;5.07;;;25.00;91.00;;;;;;5028856;28;20219;-81
2022/08/22 03:00:15;;;;;;;9.38;5.65;;;25.00;90.90;;;;;;5032864;28;20196;-80
2022/08/22 03:03:05;;;;;;;9.15;5.55;;;25.00;90.90;;;;;;5036046;28;20194;-81
2022/08/22 03:05:48;;;;;;;7.93;5.10;;;25.00;90.90;;;;;;5029496;28;20225;-80
2022/08/22 03:08:27;;;;;;;7.10;5.40;;;25.00;90.90;;;;;;5041300;28;20187;-83
2022/08/22 03:11:09;;;;;;;8.38;5.28;;;25.00;90.90;;;;;;5034334;28;20808;-81
2022/08/22 03:13:53;;;;;;;9.48;5.40;;;25.00;90.90;;;;;;5034611;28;20282;-79
2022/08/22 03:16:29;;;;;;;8.57;5.03;;;25.00;90.90;;;;;;5032613;28;20198;-79
2022/08/22 03:19:04;;;;;;;8.88;5.13;;;24.90;90.90;;;;;;5036053;28;20221;-80
2022/08/22 03:21:36;;;;;;;7.57;5.20;;;24.90;90.90;;;;;;5036499;28;20542;-82
2022/08/22 03:24:12;;;;;;;10.82;5.30;;;24.90;90.90;;;;;;5035644;28;20203;-82
2022/08/22 03:26:50;;;;;;;8.80;5.65;;;24.90;91.00;;;;;;5030775;28;20184;-82
2022/08/22 03:29:23;;;;;;;10.40;6.18;;;24.90;91.00;;;;;;5038087;28;20692;-79
2022/08/22 03:32:12;;;;;;;11.20;5.60;;;24.90;91.00;;;;;;5037661;28;20502;-79
2022/08/22 03:34:59;;;;;;;10.10;6.10;;;24.90;91.10;;;;;;5033441;28;20199;-80
2022/08/22 03:37:38;;;;;;;9.98;5.90;;;24.90;91.10;;;;;;5035403;28;20198;-81
2022/08/22 03:40:22;;;;;;;12.57;6.22;;;24.90;91.10;;;;;;5039953;28;20632;-80
2022/08/22 03:43:23;;;;;;;9.02;5.93;;;24.90;91.10;;;;;;5037168;28;20191;-80
2022/08/22 03:46:26;;;;;;;15.30;6.45;;;24.90;91.20;;;;;;5035871;28;20214;-84
2022/08/22 03:49:39;;;;;;;9.98;5.97;;;24.90;91.10;;;;;;4998194;28;20223;-80
2022/08/22 03:52:28;;;;;;;12.20;6.35;;;24.90;91.20;;;;;;5038374;28;20195;-80
2022/08/22 03:55:16;;;;;;;9.60;6.43;;;24.90;91.20;;;;;;5039276;28;20183;-80
2022/08/22 03:58:14;;;;;;;11.45;6.47;;;24.90;91.10;;;;;;5035334;28;20235;-81
2022/08/22 04:01:39;;;;;;;10.18;6.45;;;24.90;91.10;;;;;;5029649;28;20445;-82
2022/08/22 04:04:33;;;;;;;8.65;6.13;;;25.00;91.40;;;;;;5034681;28;20195;-82
2022/08/22 04:07:24;;;;;;;9.40;6.10;;;24.90;91.40;;;;;;5002501;28;20230;-82
2022/08/22 04:10:32;;;;;;;11.50;6.25;;;24.90;91.40;;;;;;5034616;28;20217;-83
2022/08/22 04:13:31;;;;;;;8.75;5.78;;;24.90;91.40;;;;;;5016202;28;20187;-82
2022/08/22 04:16:44;;;;;;;11.93;6.32;;;24.90;91.40;;;;;;5040020;28;20705;-81
2022/08/22 04:19:52;;;;;;;11.98;6.82;;;24.90;91.30;;;;;;5029421;28;20310;-83
2022/08/22 04:22:48;;;;;;;8.63;5.78;;;24.90;91.30;;;;;;4964564;28;20699;-82
2022/08/22 04:25:22;;;;;;;8.75;5.60;;;24.90;91.30;;;;;;5041658;28;20194;-81
2022/08/22 04:28:00;;;;;;;10.18;5.95;;;24.90;91.30;;;;;;5042486;28;20209;-82
2022/08/22 04:30:35;;;;;;;10.35;6.15;;;24.90;91.20;;;;;;5038862;28;20268;-83
2022/08/22 04:33:09;;;;;;;12.30;6.40;;;24.90;91.20;;;;;;5035308;28;20658;-82
2022/08/22 04:35:45;;;;;;;12.40;6.47;;;25.00;91.20;;;;;;5035887;28;20191;-82
2022/08/22 04:38:19;;;;;;;14.32;6.20;;;24.90;91.20;;;;;;5034498;28;20194;-81
2022/08/22 04:40:54;;;;;;;10.05;6.72;;;25.00;91.20;;;;;;5035856;28;20189;-81
2022/08/22 04:43:28;;;;;;;11.57;6.80;;;25.00;91.20;;;;;;5041301;28;20199;-81
2022/08/22 04:46:04;;;;;;;10.20;5.95;;;25.00;91.20;;;;;;5032205;28;20202;-82
2022/08/22 04:48:37;;;;;;;16.27;6.85;;;25.00;91.20;;;;;;5029730;28;20245;-81
2022/08/22 04:51:15;;;;;;;8.77;6.15;;;25.00;91.20;;;;;;5035053;28;20290;-81
2022/08/22 04:54:10;;;;;;;11.15;6.57;;;25.10;91.20;;;;;;5037872;28;20187;-82
2022/08/22 04:56:48;;;;;;;10.65;6.38;;;25.10;91.20;;;;;;5038011;28;20219;-80
2022/08/22 04:59:18;;;;;;;9.35;5.82;;;25.10;91.10;;;;;;5042846;28;20262;-81
2022/08/22 05:01:53;;;;;;;11.55;7.38;;;25.10;91.10;;;;;;5039009;28;20656;-80
2022/08/22 05:04:26;;;;;;;15.10;6.47;;;25.10;91.10;;;;;;5034671;28;20202;-82
2022/08/22 05:07:04;;;;;;;16.00;6.70;;;25.10;91.10;;;;;;5039381;28;20218;-83
2022/08/22 05:09:38;;;;;;;10.25;6.85;;;25.10;91.10;;;;;;5037628;28;20304;-82
2022/08/22 05:12:13;;;;;;;11.95;7.05;;;25.10;91.10;;;;;;5038453;28;20218;-80
2022/08/22 05:14:45;;;;;;;11.63;6.45;;;25.20;91.10;;;;;;5035752;28;20194;-80
2022/08/22 05:17:18;;;;;;;9.50;6.15;;;25.20;91.20;;;;;;5032459;28;20195;-80
2022/08/22 05:19:51;;;;;;;12.88;6.47;;;25.20;91.30;;;;;;5039290;28;20277;-80
2022/08/22 05:22:27;;;;;;;11.82;6.53;;;25.20;91.00;;;;;;5034189;28;20199;-81
2022/08/22 05:25:05;;;;;;;10.93;6.70;;;25.20;91.00;;;;;;5041407;28;20252;-80
2022/08/22 05:27:39;;;;;;;12.85;6.57;;;25.30;91.00;;;;;;5034194;28;20194;-80
2022/08/22 05:30:12;;;;;;;9.70;6.80;;;25.30;91.00;;;;;;5038019;28;20207;-79
2022/08/22 05:32:48;;;;;;;13.80;7.20;;;25.40;91.00;;;;;;5041570;28;20707;-79
2022/08/22 05:35:19;;;;;;;10.95;6.47;;;25.40;91.00;;;;;;5038064;28;20187;-80
2022/08/22 05:37:53;;;;;;;11.70;7.28;;;25.40;91.00;;;;;;5034566;28;20195;-79
2022/08/22 05:40:25;;;;;;;17.30;7.28;;;25.40;91.00;;;;;;5039097;28;20196;-79
2022/08/22 05:42:55;;;;;;;11.70;6.88;;;25.40;91.00;;;;;;5037446;28;20192;-79
2022/08/22 05:45:27;;;;;;;11.48;6.90;;;25.40;91.00;;;;;;5037593;28;20294;-78
2022/08/22 05:48:03;;;;;;;11.40;7.03;;;25.50;91.00;;;;;;5037043;28;20191;-77
2022/08/22 05:50:38;;;;;;;13.65;7.38;;;25.50;91.40;;;;;;5040171;28;20280;-79
2022/08/22 05:53:13;;;;;;;12.65;7.18;;;25.60;91.00;;;;;;5036718;28;20187;-78
2022/08/22 05:58:44;;;;;;;11.88;7.22;;;25.70;91.00;;;;;;5008953;28;20772;-80
2022/08/22 06:01:21;;;;;;;9.93;6.70;;;25.70;91.00;;;;;;5009539;28;20740;-79
2022/08/22 06:04:01;;;;;;;13.32;7.65;;;25.80;91.00;;;;;;5014209;28;20241;-79
2022/08/22 06:06:33;;;;;;;16.73;8.02;;;25.80;90.90;;;;;;5019815;28;20195;-80
2022/08/22 06:09:05;;;;;;;12.50;7.97;;;25.80;91.10;;;;;;5011316;28;20187;-80
2022/08/22 06:11:40;;;;;;;13.05;7.63;;;25.80;91.20;;;;;;5012206;28;20643;-79
2022/08/22 06:14:29;;;;;;;12.43;7.30;;;25.80;91.20;;;;;;5009959;28;20200;-81
2022/08/22 06:17:06;;;;;;;15.30;8.43;;;25.80;91.20;;;;;;5013155;28;20200;-79
2022/08/22 06:19:39;;;;;;;11.98;7.90;;;25.80;91.10;;;;;;5016167;28;20245;-81
2022/08/22 06:22:09;;;;;;;11.45;7.32;;;25.90;91.20;;;;;;5015132;28;20206;-78
2022/08/22 06:24:44;;;;;;;12.80;7.60;;;25.90;91.10;;;;;;5009447;28;20203;-78
2022/08/22 06:27:16;;;;;;;12.93;8.02;;;26.00;91.00;;;;;;5019041;28;20227;-79
2022/08/22 06:29:51;;;;;;;15.30;7.22;;;26.00;91.00;;;;;;5013923;28;20184;-78
2022/08/22 06:32:26;;;;;;;17.58;8.43;;;26.00;91.00;;;;;;5015704;28;20188;-78
2022/08/22 06:35:18;;;;;;;13.77;8.27;;;26.00;91.00;;;;;;5017158;28;20199;-77
2022/08/22 06:37:48;;;;;;;15.77;8.65;;;26.10;91.00;;;;;;5018599;28;20191;-77
2022/08/22 06:40:18;;;;;;;16.80;8.35;;;26.10;90.90;;;;;;5021009;28;20242;-78
2022/08/22 06:42:50;;;;;;;15.30;8.00;;;26.10;90.90;;;;;;5018001;28;20631;-78
2022/08/22 06:45:24;;;;;;;12.40;7.90;;;26.10;90.90;;;;;;5019398;28;20203;-77
2022/08/22 06:47:56;;;;;;;12.90;8.40;;;26.10;90.80;;;;;;5020336;28;20285;-77
2022/08/22 06:50:32;;;;;;;12.93;8.57;;;26.10;90.70;;;;;;5027103;28;20239;-77
2022/08/22 06:53:05;;;;;;;12.13;8.40;;;26.20;90.80;;;;;;5016670;28;20192;-77
2022/08/22 06:55:36;;;;;;;13.88;8.63;;;26.20;90.90;;;;;;5023836;28;20203;-78
2022/08/22 06:58:07;;;;;;;15.43;8.40;;;26.20;90.90;;;;;;5017319;28;20776;-76
2022/08/22 07:00:38;;;;;;;14.00;8.20;;;26.20;91.00;;;;;;5020206;28;20223;-76
2022/08/22 07:03:16;;;;;;;17.58;8.77;;;26.20;91.00;;;;;;5023454;28;20650;-78
2022/08/22 07:05:44;;;;;;;15.55;8.05;;;26.20;91.00;;;;;;5020327;28;20195;-78
2022/08/22 07:08:15;;;;;;;23.13;9.05;;;26.20;91.20;;;;;;5019368;28;20643;-78
2022/08/22 07:10:49;;;;;;;12.85;8.50;;;26.20;91.20;;;;;;5015950;28;20558;-78
2022/08/22 07:13:20;;;;;;;13.65;8.57;;;26.30;91.20;;;;;;5014861;28;20274;-77
2022/08/22 07:15:56;;;;;;;13.18;8.55;;;26.30;91.20;;;;;;5015308;28;20200;-80
2022/08/22 07:18:27;;;;;;;19.15;8.57;;;26.30;91.10;;;;;;5020068;28;20202;-78
2022/08/22 07:20:58;;;;;;;11.93;8.40;;;26.30;91.00;;;;;;5022365;28;20198;-77
2022/08/22 07:23:33;;;;;;;14.13;8.55;;;26.40;91.10;;;;;;5011829;28;20611;-77
2022/08/22 07:26:17;;;;;;;20.83;8.88;;;26.40;91.10;;;;;;5023193;28;20223;-79
2022/08/22 07:28:50;;;;;;;13.05;8.65;;;26.30;90.90;;;;;;5019970;28;20193;-80
2022/08/22 07:31:37;;;;;;;15.20;8.85;;;26.40;91.00;;;;;;5023867;28;20200;-79
2022/08/22 07:34:34;;;;;;;14.27;9.60;;;26.40;91.30;;;;;;5022708;28;20218;-79
2022/08/22 07:37:09;;;;;;;15.38;9.45;;;26.40;90.90;;;;;;5020183;28;20699;-77
2022/08/22 07:39:43;;;;;;;20.25;8.98;;;26.40;90.90;;;;;;5010179;28;20191;-79
2022/08/22 07:42:17;;;;;;;17.20;10.00;;;26.40;90.80;;;;;;5013640;28;20220;-79
2022/08/22 07:45:03;;;;;;;15.75;8.38;;;26.40;90.80;;;;;;5018556;28;20233;-78
2022/08/22 07:47:45;;;;;;;16.15;9.05;;;26.40;90.80;;;;;;5014553;28;21019;-78
2022/08/22 07:50:22;;;;;;;12.05;7.85;;;26.50;91.00;;;;;;5011081;28;20195;-78
2022/08/22 07:52:55;;;;;;;13.73;9.02;;;26.50;91.00;;;;;;5013843;28;20199;-77
2022/08/22 07:55:26;;;;;;;14.90;9.98;;;26.50;91.00;;;;;;5013748;28;20203;-78
2022/08/22 07:57:58;;;;;;;18.45;9.18;;;26.60;91.00;;;;;;5022879;28;20227;-78
2022/08/22 08:00:33;;;;;;;14.63;9.07;;;26.60;90.90;;;;;;5021369;28;20215;-81
2022/08/22 08:03:07;;;;;;;16.05;9.68;;;26.70;90.90;;;;;;5017249;28;20860;-78
2022/08/22 08:05:44;;;;;;;18.55;10.93;;;26.70;90.70;;;;;;5018725;28;20832;-82
2022/08/22 08:08:19;;;;;;;13.38;9.02;;;26.70;90.60;;;;;;5017440;28;20218;-80
2022/08/22 08:10:50;;;;;;;16.48;9.15;;;26.80;90.60;;;;;;5014607;28;20188;-79
2022/08/22 08:13:25;;;;;;;15.13;8.70;;;26.80;90.80;;;;;;4981395;28;20203;-79
2022/08/22 08:15:54;;;;;;;15.55;8.98;;;26.90;90.50;;;;;;5016288;28;20195;-79
2022/08/22 08:18:28;;;;;;;17.17;10.18;;;26.90;90.30;;;;;;5013994;28;20196;-81
2022/08/22 08:21:02;;;;;;;17.58;10.13;;;27.00;90.20;;;;;;5014881;28;20275;-80
2022/08/22 08:23:36;;;;;;;18.20;10.77;;;27.00;90.10;;;;;;5022690;28;20208;-78
2022/08/22 08:26:12;;;;;;;15.02;9.23;;;27.00;90.00;;;;;;5024536;28;20191;-78
2022/08/22 08:28:46;;;;;;;17.38;9.63;;;27.00;90.10;;;;;;5020666;28;20203;-80
2022/08/22 08:31:22;;;;;;;16.65;11.10;;;27.10;90.10;;;;;;5018881;28;20241;-79
2022/08/22 08:34:02;;;;;;;18.85;10.57;;;27.10;90.10;;;;;;5017965;28;20195;-81
2022/08/22 08:36:40;;;;;;;17.00;10.57;;;27.20;90.00;;;;;;5009725;28;20193;-78
2022/08/22 08:39:21;;;;;;;13.48;9.27;;;27.20;90.00;;;;;;5017175;28;20192;-80
2022/08/22 08:42:14;;;;;;;15.80;9.95;;;27.20;89.80;;;;;;5014172;28;20200;-78
2022/08/22 08:45:14;;;;;;;19.50;10.13;;;27.30;89.70;;;;;;5020185;28;20192;-79
2022/08/22 08:48:05;;;;;;;14.43;10.02;;;27.30;89.50;;;;;;5015773;28;20203;-79
2022/08/22 08:50:56;;;;;;;13.75;9.77;;;27.40;89.60;;;;;;5018133;28;20206;-78
2022/08/22 08:54:02;;;;;;;14.98;9.20;;;27.50;89.50;;;;;;5019255;28;20377;-79
2022/08/22 08:56:38;;;;;;;16.50;10.02;;;27.60;89.50;;;;;;5019213;28;20211;-78
2022/08/22 08:59:24;;;;;;;17.85;10.20;;;27.70;88.70;;;;;;5011125;28;20179;-80
2022/08/22 09:02:09;;;;;;;19.15;10.18;;;27.80;88.40;;;;;;5018967;28;20195;-80
2022/08/22 09:05:35;;;;;;;15.80;9.40;;;27.80;87.60;;;;;;5016204;28;20198;-80
2022/08/22 09:08:29;;;;;;;18.42;9.38;;;27.90;86.80;;;;;;5015430;28;20200;-78
2022/08/22 09:11:29;;;;;;;14.15;8.90;;;28.00;86.70;;;;;;5011598;28;20195;-78
2022/08/22 09:14:15;;;;;;;14.00;8.60;;;28.10;86.90;;;;;;4982960;28;20192;-79
2022/08/22 09:17:08;;;;;;;14.25;8.90;;;28.20;86.90;;;;;;5020328;28;20872;-79
2022/08/22 09:20:12;;;;;;;16.35;8.57;;;28.20;86.50;;;;;;5013063;28;20192;-79
2022/08/22 09:23:18;;;;;;;15.10;8.93;;;28.30;86.40;;;;;;5018110;28;20187;-76
2022/08/22 09:25:54;;;;;;;15.18;8.85;;;28.50;86.20;;;;;;5007526;28;20877;-76
2022/08/22 09:28:31;;;;;;;11.40;8.60;;;28.60;85.30;;;;;;5014708;28;20195;-77
2022/08/22 09:31:31;;;;;;;13.68;7.28;;;28.70;84.80;;;;;;5011614;28;20207;-78
2022/08/22 09:34:28;;;;;;;14.00;8.48;;;28.80;84.20;;;;;;5013417;28;20203;-81
2022/08/22 09:37:12;;;;;;;12.60;8.48;;;28.80;82.90;;;;;;5018980;28;20206;-78
2022/08/22 09:39:50;;;;;;;14.32;7.60;;;28.90;82.60;;;;;;5019638;28;20561;-80
2022/08/22 09:42:29;;;;;;;13.20;6.90;;;29.00;82.40;;;;;;5016537;28;20203;-79
2022/08/22 09:45:27;;;;;;;8.40;6.13;;;29.10;82.00;;;;;;5009299;28;20191;-80
2022/08/22 09:48:00;;;;;;;9.35;6.18;;;29.10;81.50;;;;;;5010452;28;20220;-80
2022/08/22 09:50:48;;;;;;;9.07;5.65;;;29.10;80.70;;;;;;5013843;28;20203;-81
2022/08/22 09:53:54;;;;;;;7.45;4.95;;;29.10;80.70;;;;;;5011426;28;20224;-79
2022/08/22 09:56:36;;;;;;;10.35;6.18;;;29.20;80.40;;;;;;5012899;28;20223;-80
2022/08/22 09:59:13;;;;;;;10.48;7.00;;;29.20;80.20;;;;;;5012995;28;20676;-80
2022/08/22 10:01:50;;;;;;;12.90;7.60;;;29.30;79.80;;;;;;5014706;28;20634;-79
2022/08/22 10:04:46;;;;;;;12.02;7.70;;;29.40;79.70;;;;;;5009294;28;20641;-82
2022/08/22 10:07:39;;;;;;;10.60;6.15;;;29.40;78.90;;;;;;5013750;28;20196;-81
2022/08/22 10:10:27;;;;;;;12.23;7.05;;;29.50;79.60;;;;;;5011612;28;20845;-80
2022/08/22 10:13:03;;;;;;;11.50;7.07;;;29.50;79.10;;;;;;5018279;28;20955;-80
2022/08/22 10:15:46;;;;;;;9.35;6.78;;;29.50;79.30;;;;;;5013062;28;20202;-80
2022/08/22 10:18:26;;;;;;;9.18;6.72;;;29.50;79.30;;;;;;5011929;28;20792;-79
2022/08/22 10:21:05;;;;;;;10.70;6.45;;;29.50;79.60;;;;;;5011949;28;20188;-81
2022/08/22 10:23:43;;;;;;;12.30;6.57;;;29.50;79.70;;;;;;5017509;28;20271;-82
2022/08/22 10:26:23;;;;;;;11.13;6.65;;;29.50;79.60;;;;;;5007311;28;20290;-82
2022/08/22 10:28:59;;;;;;;10.32;6.70;;;29.50;79.30;;;;;;5016136;28;20221;-80
2022/08/22 10:31:37;;;;;;;12.57;7.72;;;29.50;78.80;;;;;;5015667;28;20199;-80
2022/08/22 10:34:30;;;;;;;9.45;6.68;;;29.50;78.70;;;;;;5010235;28;20188;-80
2022/08/22 10:37:12;;;;;;;14.38;6.85;;;29.50;77.80;;;;;;5013669;28;20287;-79
2022/08/22 10:39:46;;;;;;;12.68;6.50;;;29.50;77.70;;;;;;5020992;28;20278;-79
2022/08/22 10:42:26;;;;;;;9.95;6.55;;;29.50;77.70;;;;;;5017873;28;20208;-79
2022/08/22 10:45:10;;;;;;;10.70;5.97;;;29.50;77.60;;;;;;5007683;28;20220;-82
2022/08/22 10:48:21;;;;;;;7.53;4.53;;;29.50;77.50;;;;;;5041661;28;20708;-82
2022/08/22 10:50:57;;;;;;;6.38;3.97;;;29.50;77.30;;;;;;5034900;28;20291;-84
2022/08/22 10:53:37;;;;;;;6.93;4.30;;;29.50;76.90;;;;;;5014064;28;20741;-81
2022/08/22 10:56:13;;;;;;;7.65;4.28;;;29.50;76.60;;;;;;5013108;28;20367;-80
2022/08/22 10:58:48;;;;;;;6.97;4.55;;;29.60;76.70;;;;;;5018233;28;20223;-79
2022/08/22 11:01:19;;;;;;;9.90;4.75;;;29.60;76.50;;;;;;5007061;28;20195;-78
2022/08/22 11:04:21;;;;;;;9.65;5.75;;;29.60;76.10;;;;;;5009588;28;20234;-79
2022/08/22 11:07:17;;;;;;;7.30;3.67;;;29.60;76.30;;;;;;5014480;28;20208;-81
2022/08/22 11:09:58;;;;;;;7.80;3.85;;;29.60;76.10;;;;;;5011559;28;20196;-79
2022/08/22 11:12:36;;;;;;;8.68;4.43;;;29.60;76.10;;;;;;5009242;28;20203;-79
2022/08/22 11:15:17;;;;;;;5.90;3.67;;;29.70;76.10;;;;;;5018662;28;20192;-79
2022/08/22 11:18:25;;;;;;;6.55;4.28;;;29.80;76.20;;;;;;5015502;28;20315;-79
2022/08/22 11:21:04;;;;;;;6.10;3.25;;;29.90;76.30;;;;;;5016445;28;20192;-80
2022/08/22 11:23:44;;;;;;;6.30;4.32;;;29.90;75.90;;;;;;5017199;28;20273;-81
2022/08/22 11:26:29;;;;;;;8.85;5.57;;;30.00;75.20;;;;;;5023448;28;20188;-81
2022/08/22 11:29:26;;;;;;;7.57;5.60;;;30.10;74.30;;;;;;5017068;28;20257;-77
2022/08/22 11:32:04;;;;;;;8.35;5.45;;;30.10;74.20;;;;;;5013435;28;20196;-78
2022/08/22 11:34:48;;;;;;;12.10;5.55;;;30.10;74.20;;;;;;5013485;28;20569;-78
2022/08/22 11:37:54;;;;;;;11.00;5.10;;;30.20;74.30;;;;;;5012462;28;20192;-79
2022/08/22 11:40:33;;;;;;;9.45;5.40;;;30.10;74.20;;;;;;4994249;28;20223;-79
2022/08/22 11:43:17;;;;;;;8.75;5.97;;;30.10;74.00;;;;;;5013374;28;20183;-79
2022/08/22 11:45:58;;;;;;;9.80;5.97;;;30.10;73.80;;;;;;5020705;28;20286;-80
2022/08/22 11:48:37;;;;;;;8.60;5.70;;;30.10;73.70;;;;;;5022535;28;20213;-79
2022/08/22 11:51:16;;;;;;;11.75;6.10;;;30.10;73.80;;;;;;5015099;28;20195;-79
2022/08/22 11:54:03;;;;;;;9.52;5.68;;;30.20;73.90;;;;;;5025917;28;20210;-79
2022/08/22 11:56:37;;;;;;;22.08;7.90;;;30.30;74.70;;;;;;5015628;28;20278;-81
2022/08/22 11:59:20;;;;;;;11.73;6.53;;;30.40;73.90;;;;;;5011378;28;20270;-80
2022/08/22 12:01:58;;;;;;;13.63;6.40;;;30.40;73.30;;;;;;5011332;28;20212;-82
2022/08/22 12:04:34;;;;;;;9.48;5.95;;;30.30;73.50;;;;;;5000450;28;20192;-80
2022/08/22 12:07:12;;;;;;;11.75;5.75;;;30.40;73.60;;;;;;5018753;28;20292;-79
2022/08/22 12:09:57;;;;;;;7.68;5.90;;;30.40;72.80;;;;;;5013282;28;20204;-80
2022/08/22 12:12:45;;;;;;;8.45;5.90;;;30.50;72.70;;;;;;5017730;28;20206;-79
2022/08/22 12:15:21;;;;;;;8.98;6.15;;;30.60;72.40;;;;;;5018414;28;20180;-79
2022/08/22 12:18:40;;;;;;;8.95;6.00;;;30.60;72.20;;;;;;5016172;28;21500;-85
2022/08/22 12:21:45;;;;;;;10.63;6.25;;;30.60;72.20;;;;;;5018610;28;20195;-79
2022/08/22 12:24:47;;;;;;;10.05;6.50;;;30.60;71.90;;;;;;5010371;28;20227;-78
2022/08/22 12:27:40;;;;;;;9.40;6.10;;;30.60;71.60;;;;;;5013443;28;20200;-79
2022/08/22 12:30:24;;;;;;;9.15;5.85;;;30.60;71.60;;;;;;5016548;28;20187;-79
2022/08/22 12:33:38;;;;;;;6.80;5.47;;;30.60;71.70;;;;;;5017004;28;20814;-80
2022/08/22 12:36:23;;;;;;;7.63;5.50;;;30.50;71.50;;;;;;5016589;28;20246;-80
2022/08/22 12:39:23;;;;;;;7.07;5.07;;;30.60;71.10;;;;;;5015334;28;20196;-80
2022/08/22 12:42:25;;;;;;;10.77;5.53;;;30.70;70.80;;;;;;5018085;28;20199;-80
2022/08/22 12:45:10;;;;;;;14.77;6.13;;;30.80;70.40;;;;;;4999373;28;20239;-75
2022/08/22 12:47:53;;;;;;;12.27;5.15;;;30.90;69.80;;;;;;5014392;28;20199;-78
2022/08/22 12:50:35;;;;;;;7.97;4.70;;;30.90;68.80;;;;;;5012748;28;20299;-78
2022/08/22 12:53:24;;;;;;;7.95;4.75;;;31.00;68.80;;;;;;5018958;28;20199;-77
2022/08/22 12:56:05;;;;;;;7.05;4.80;;;31.00;67.20;;;;;;5013574;28;20227;-78
2022/08/22 12:59:15;;;;;;;9.65;4.80;;;31.10;66.90;;;;;;5018624;28;20871;-78
2022/08/22 13:01:49;;;;;;;6.40;4.50;;;31.20;66.90;;;;;;5012926;28;20314;-78
2022/08/22 13:04:21;;;;;;;6.93;4.60;;;31.20;67.10;;;;;;5016018;28;20208;-80
2022/08/22 13:07:19;;;;;;;8.48;5.05;;;31.30;66.90;;;;;;5020549;28;20227;-81
2022/08/22 13:09:53;;;;;;;8.15;5.15;;;31.40;67.10;;;;;;5012736;28;20847;-78
2022/08/22 13:12:26;;;;;;;7.50;4.85;;;31.40;67.00;;;;;;5019036;28;20204;-76
2022/08/22 13:15:01;;;;;;;8.80;4.88;;;31.40;66.00;;;;;;5017034;28;20306;-81
2022/08/22 13:17:32;;;;;;;6.65;5.15;;;31.40;66.00;;;;;;5018185;28;20206;-79
2022/08/22 13:20:09;;;;;;;10.63;4.80;;;31.40;66.10;;;;;;5012947;28;20338;-80
2022/08/22 13:22:41;;;;;;;9.60;4.85;;;31.50;66.80;;;;;;5015939;28;20200;-79
2022/08/22 13:25:22;;;;;;;9.20;5.00;;;31.40;66.90;;;;;;5019256;28;20199;-80
2022/08/22 13:27:56;;;;;;;11.20;4.60;;;31.40;67.20;;;;;;5020830;28;20188;-80
2022/08/22 13:30:30;;;;;;;8.82;4.40;;;31.40;67.00;;;;;;5012680;28;20212;-81
2022/08/22 13:33:09;;;;;;;7.65;4.75;;;31.40;67.10;;;;;;5020081;28;20192;-81
2022/08/22 13:35:48;;;;;;;11.07;4.75;;;31.50;67.50;;;;;;5013723;28;20286;-79
2022/08/22 13:38:38;;;;;;;11.30;4.80;;;31.50;67.60;;;;;;5014422;28;20187;-79
2022/08/22 13:41:23;;;;;;;6.65;4.55;;;31.50;67.20;;;;;;5014945;28;20741;-76
2022/08/22 13:44:18;;;;;;;7.50;3.95;;;31.50;66.30;;;;;;5011777;28;20287;-78
2022/08/22 13:46:51;;;;;;;8.43;4.32;;;31.50;65.90;;;;;;5014967;28;20305;-79
2022/08/22 13:49:43;;;;;;;5.47;3.78;;;31.50;66.10;;;;;;5018593;28;20219;-77
2022/08/22 13:52:32;;;;;;;7.00;3.53;;;31.50;66.40;;;;;;4984159;28;20941;-79
2022/08/22 13:55:13;;;;;;;7.40;3.70;;;31.50;66.90;;;;;;5025727;28;21036;-78
2022/08/22 13:57:47;;;;;;;11.18;4.35;;;31.40;67.10;;;;;;5016250;28;20684;-79
2022/08/22 14:00:58;;;;;;;5.75;3.55;;;31.50;67.50;;;;;;5016259;28;20192;-81
2022/08/22 14:03:34;;;;;;;5.85;4.10;;;31.50;67.60;;;;;;5018070;28;20219;-81